Skip Navigation LinksHome page > Weather > Current weather Skip Navigation Links

Current Weather

Alert, Nunavut

For information only: do not use for flight planning or navigation.
Latest weather
Observation time Monday, September 15, 2014 5:00 AM EDT
Local time Monday, September 15, 2014 5:27 AM EDT
Flight conditions Low Instrument Meteorological Conditions
Winds
Wind direction Northwest (320°)
Wind speed 9 mph
Visibility 0.75 mi.
Present weather light snow, mist
Sky condition
Ceiling 300 ft. overcast
Cloud layer overcast 300 ft.
Temperature 18°F
Dewpoint 16°F
Altimeter 29.85 in.Hg
Derived measurements
Relative humidity 92%
Wind chill 6°F
Density altitude -2729 ft.
Sea-level pressure 29.86 in.Hg
Remarks
Visibility.
METAR CYLT 150900Z 32008KT 3/4SM -SN BR OVC003 M08/M09 A2985 RMK ST8 VIS VRB 1/2-1 FST OBS SLP111

Settings

Location code

InnerDrive.Weather 4.0.5356.0 Release CLR 4.0.30319.34014
Copyright ©2014 Inner Drive Technology. All rights reserved. Portions Copyright ©1986-2014 David Braverman.

Find weather

Site navigation


Skip Navigation Links

Place info

Page info

PayPal - The safer, easier way to pay online!

Return home.

Copyright ©2014 Inner Drive Technology. Purveyors of fine, hand-crafted computer software. Page printed 2014-09-15T09:27:12 UTC.